Time;durP1;ratioP1;P1;durP2;ratioP2;P2;SDS_P1;SDS_P2;PMS_P1;PMS_P2;Temp;Humidity;BMP_temperature;BMP_pressure;BME280_temperature;BME280_humidity;BME280_pressure;Samples;Min_cycle;Max_cycle;Signal;HPM_P1;HPM_P2
2024/01/05 00:04:35;;;;;;;10.73;2.50;;;9.30;99.90;;;;;;10487833;28;20834;-66
2024/01/05 00:09:40;;;;;;;7.22;2.35;;;9.30;99.90;;;;;;10489552;28;20195;-66
2024/01/05 00:14:44;;;;;;;6.45;2.00;;;9.30;99.90;;;;;;10486738;28;20231;-66
2024/01/05 00:19:47;;;;;;;8.20;2.30;;;9.40;99.90;;;;;;10487048;28;20219;-66
2024/01/05 00:24:52;;;;;;;9.23;2.60;;;9.40;99.90;;;;;;10487313;28;20223;-66
2024/01/05 00:29:56;;;;;;;11.70;2.60;;;9.40;99.90;;;;;;10486206;28;20225;-66
2024/01/05 00:34:59;;;;;;;14.83;3.30;;;9.40;99.90;;;;;;10481044;28;20291;-66
2024/01/05 00:40:06;;;;;;;9.95;2.58;;;9.40;99.90;;;;;;10493078;28;20227;-66
2024/01/05 00:45:09;;;;;;;11.57;2.40;;;9.40;99.90;;;;;;10495235;28;20223;-69
2024/01/05 00:50:13;;;;;;;10.23;2.63;;;9.40;99.90;;;;;;10495550;28;20195;-66
2024/01/05 00:55:18;;;;;;;5.83;2.17;;;9.40;99.90;;;;;;10495699;28;20571;-65
2024/01/05 01:00:22;;;;;;;9.55;2.22;;;9.50;99.90;;;;;;10491957;28;20227;-65
2024/01/05 01:05:25;;;;;;;10.48;2.95;;;9.50;99.90;;;;;;10492244;28;20823;-66
2024/01/05 01:10:30;;;;;;;13.23;3.10;;;9.50;99.90;;;;;;10493816;28;20559;-66
2024/01/05 01:15:34;;;;;;;9.90;2.90;;;9.50;99.90;;;;;;10489609;28;20244;-66
2024/01/05 01:20:38;;;;;;;9.30;3.00;;;9.50;99.90;;;;;;10491882;28;20226;-66
2024/01/05 01:25:43;;;;;;;10.07;2.90;;;9.50;99.90;;;;;;10489849;28;20633;-66
2024/01/05 01:30:47;;;;;;;14.07;2.92;;;9.50;99.90;;;;;;10494035;28;20756;-66
2024/01/05 01:35:50;;;;;;;8.53;3.03;;;9.50;99.90;;;;;;10498766;28;20219;-66
2024/01/05 01:40:56;;;;;;;17.63;3.47;;;9.50;99.90;;;;;;10493156;28;20230;-66
2024/01/05 01:46:01;;;;;;;10.43;3.70;;;9.50;99.90;;;;;;10491273;28;20218;-66
2024/01/05 01:51:05;;;;;;;11.70;2.80;;;9.50;99.90;;;;;;10494262;28;20249;-65
2024/01/05 01:56:13;;;;;;;11.00;2.70;;;9.60;99.90;;;;;;10493598;28;20271;-65
2024/01/05 02:01:17;;;;;;;10.35;2.70;;;9.50;99.90;;;;;;10493662;28;20630;-65
2024/01/05 02:06:21;;;;;;;10.20;2.58;;;9.50;99.90;;;;;;10493151;28;20348;-66
2024/01/05 02:11:26;;;;;;;10.10;2.25;;;9.50;99.90;;;;;;10491340;28;20191;-65
2024/01/05 02:16:30;;;;;;;9.50;2.37;;;9.50;99.90;;;;;;10490386;28;20227;-65
2024/01/05 02:21:40;;;;;;;9.27;2.77;;;9.50;99.90;;;;;;10491014;28;20284;-66
2024/01/05 02:26:45;;;;;;;9.73;2.47;;;9.50;99.90;;;;;;10489885;28;20271;-65
2024/01/05 02:31:49;;;;;;;9.40;2.23;;;9.50;99.90;;;;;;10487279;28;20196;-65
2024/01/05 02:36:53;;;;;;;12.80;2.40;;;9.40;99.90;;;;;;10488554;28;20595;-66
2024/01/05 02:41:58;;;;;;;10.07;2.37;;;9.40;99.90;;;;;;10491847;28;20195;-66
2024/01/05 02:47:02;;;;;;;7.43;2.47;;;9.30;99.90;;;;;;10492558;28;20214;-66
2024/01/05 02:52:05;;;;;;;13.70;3.10;;;9.30;99.90;;;;;;10488396;28;20199;-66
2024/01/05 02:57:11;;;;;;;9.60;2.63;;;9.30;99.90;;;;;;10497280;28;20223;-66
2024/01/05 03:02:14;;;;;;;10.57;2.50;;;9.30;99.90;;;;;;10485452;28;20221;-66
2024/01/05 03:07:18;;;;;;;9.33;2.37;;;9.20;99.90;;;;;;10486103;28;20219;-64
2024/01/05 03:12:23;;;;;;;11.40;2.83;;;9.20;99.90;;;;;;10481097;28;20686;-66
2024/01/05 03:17:26;;;;;;;15.07;3.20;;;9.10;99.90;;;;;;10484109;28;20223;-66
2024/01/05 03:22:30;;;;;;;10.48;2.38;;;9.10;99.90;;;;;;10481477;28;20248;-65
2024/01/05 03:27:36;;;;;;;8.20;2.20;;;9.10;99.90;;;;;;10487771;28;20215;-66
2024/01/05 03:32:40;;;;;;;11.43;2.30;;;9.00;99.90;;;;;;10483525;28;20264;-66
2024/01/05 03:37:43;;;;;;;13.87;2.87;;;8.90;99.90;;;;;;10489717;28;20419;-66
2024/01/05 03:42:48;;;;;;;9.63;1.97;;;8.90;99.90;;;;;;10489383;28;20203;-66
2024/01/05 03:47:52;;;;;;;7.43;2.00;;;8.80;99.90;;;;;;10489495;28;20272;-66
2024/01/05 03:52:55;;;;;;;7.83;1.70;;;8.80;99.90;;;;;;10485871;28;20650;-66
2024/01/05 03:58:00;;;;;;;6.20;1.80;;;8.80;99.90;;;;;;10487619;28;20214;-65
2024/01/05 04:03:04;;;;;;;7.20;1.90;;;8.70;99.90;;;;;;10487891;28;20183;-66
2024/01/05 04:08:08;;;;;;;7.47;2.03;;;8.70;99.90;;;;;;10486763;28;20252;-66
2024/01/05 04:13:13;;;;;;;9.43;2.27;;;8.60;99.90;;;;;;10482472;28;20267;-65
2024/01/05 04:18:17;;;;;;;6.63;2.20;;;8.60;99.90;;;;;;10483781;28;20218;-65
2024/01/05 04:23:21;;;;;;;9.27;1.90;;;8.60;99.90;;;;;;10485311;28;20650;-65
2024/01/05 04:28:26;;;;;;;7.27;2.23;;;8.60;99.90;;;;;;10487509;28;20616;-65
2024/01/05 04:33:30;;;;;;;10.07;2.57;;;8.60;99.90;;;;;;10485609;28;20668;-65
2024/01/05 04:38:34;;;;;;;8.23;2.33;;;8.70;99.90;;;;;;10484779;28;20283;-65
2024/01/05 04:43:39;;;;;;;8.20;2.30;;;8.70;99.90;;;;;;10481848;28;20199;-65
2024/01/05 04:48:42;;;;;;;11.33;2.97;;;8.80;99.90;;;;;;10484354;28;20248;-65
2024/01/05 04:53:48;;;;;;;9.13;2.67;;;8.80;99.90;;;;;;10484868;28;20272;-65
2024/01/05 04:58:53;;;;;;;7.63;3.00;;;8.90;99.90;;;;;;10457891;28;20219;-65
2024/01/05 05:03:58;;;;;;;5.87;2.70;;;9.00;99.90;;;;;;10470726;28;20250;-64
2024/01/05 05:09:21;;;;;;;7.50;2.17;;;9.00;99.90;;;;;;10382410;22;20577;-64
2024/01/05 05:14:26;;;;;;;9.53;2.70;;;9.00;99.90;;;;;;10366629;28;20263;-67
2024/01/05 05:19:30;;;;;;;8.07;2.40;;;9.10;99.90;;;;;;10365803;28;20287;-66
2024/01/05 05:24:33;;;;;;;9.13;3.03;;;9.10;99.90;;;;;;10375241;28;20271;-67
2024/01/05 05:29:38;;;;;;;11.15;2.13;;;9.20;99.90;;;;;;10376325;28;20220;-67
2024/01/05 05:34:43;;;;;;;11.20;2.70;;;9.20;99.90;;;;;;10374000;28;20680;-66
2024/01/05 05:39:47;;;;;;;8.60;2.10;;;9.30;99.90;;;;;;10375799;28;20750;-63
2024/01/05 05:44:52;;;;;;;9.68;2.33;;;9.30;99.90;;;;;;10375708;28;20208;-65
2024/01/05 05:49:55;;;;;;;7.82;2.35;;;9.30;99.90;;;;;;10375958;28;20664;-66
2024/01/05 05:54:59;;;;;;;7.47;2.60;;;9.40;99.90;;;;;;10375459;28;20196;-66
2024/01/05 06:00:05;;;;;;;5.97;2.30;;;9.40;99.90;;;;;;10375036;28;20217;-66
2024/01/05 06:05:09;;;;;;;5.73;1.90;;;9.50;99.90;;;;;;10374827;28;20631;-66
2024/01/05 06:10:12;;;;;;;7.05;2.38;;;9.40;99.90;;;;;;10375275;28;20205;-65
2024/01/05 06:15:17;;;;;;;7.68;1.92;;;9.50;99.90;;;;;;10374399;28;20612;-63
2024/01/05 06:20:21;;;;;;;6.38;2.00;;;9.50;99.90;;;;;;10374837;28;20225;-63
2024/01/05 06:25:25;;;;;;;6.82;1.85;;;9.40;99.90;;;;;;10373731;28;20271;-65
2024/01/05 06:30:29;;;;;;;8.33;2.20;;;9.40;99.90;;;;;;10345250;28;20202;-64
2024/01/05 06:35:33;;;;;;;7.78;2.45;;;9.40;99.90;;;;;;10358797;28;20224;-65
2024/01/05 06:40:37;;;;;;;9.77;2.50;;;9.40;99.90;;;;;;10374394;28;20213;-66
2024/01/05 06:45:42;;;;;;;9.07;2.30;;;9.40;99.90;;;;;;10373794;28;20225;-65
2024/01/05 06:50:45;;;;;;;5.43;2.00;;;9.40;99.90;;;;;;10373808;28;20197;-64
2024/01/05 06:55:49;;;;;;;5.10;2.00;;;9.40;99.90;;;;;;10373265;28;20221;-63
2024/01/05 07:00:54;;;;;;;6.82;2.00;;;9.40;99.90;;;;;;10373243;28;20332;-65
2024/01/05 07:05:57;;;;;;;7.03;2.70;;;9.40;99.90;;;;;;10372616;28;20228;-65
2024/01/05 07:11:01;;;;;;;5.87;2.30;;;9.40;99.90;;;;;;10372861;28;20197;-63
2024/01/05 07:16:15;;;;;;;7.07;2.00;;;9.40;99.90;;;;;;10372386;28;20225;-63
2024/01/05 07:21:19;;;;;;;4.87;2.10;;;9.40;99.90;;;;;;10372667;28;20676;-63
2024/01/05 07:26:23;;;;;;;6.10;1.87;;;9.40;99.90;;;;;;10371891;28;20252;-63
2024/01/05 07:31:28;;;;;;;5.18;1.67;;;9.40;99.90;;;;;;10371586;28;20193;-65
2024/01/05 07:36:31;;;;;;;5.80;2.20;;;9.50;99.90;;;;;;10371461;28;20555;-65
2024/01/05 07:41:35;;;;;;;7.50;3.20;;;9.50;99.90;;;;;;10371760;28;20209;-66
2024/01/05 07:46:43;;;;;;;6.33;2.00;;;9.50;99.90;;;;;;10371106;28;20279;-66
2024/01/05 07:51:46;;;;;;;5.80;1.60;;;9.60;99.90;;;;;;10371484;28;20205;-65
2024/01/05 07:56:50;;;;;;;5.90;1.70;;;9.60;99.90;;;;;;10371503;28;20225;-66
2024/01/05 08:01:55;;;;;;;5.17;1.80;;;9.60;99.90;;;;;;10371334;28;20216;-65
2024/01/05 08:06:59;;;;;;;5.37;1.47;;;9.60;99.90;;;;;;10371496;28;20279;-65
2024/01/05 08:12:03;;;;;;;4.70;1.50;;;9.70;99.90;;;;;;10371374;28;20201;-65
2024/01/05 08:17:08;;;;;;;5.93;2.27;;;9.70;99.90;;;;;;10363391;28;20602;-64
2024/01/05 08:22:11;;;;;;;7.32;2.00;;;9.90;99.90;;;;;;10351135;28;20266;-64
2024/01/05 08:27:15;;;;;;;3.88;1.85;;;9.90;99.90;;;;;;10335964;28;20712;-64
2024/01/05 08:32:20;;;;;;;3.88;1.77;;;9.90;99.90;;;;;;10369989;28;20197;-65
2024/01/05 08:37:24;;;;;;;5.70;1.63;;;9.90;99.90;;;;;;10369378;28;20229;-63
2024/01/05 08:42:28;;;;;;;4.25;1.23;;;9.90;99.90;;;;;;10371210;28;20724;-61
2024/01/05 08:47:33;;;;;;;4.85;1.60;;;9.90;99.90;;;;;;10370786;28;20267;-62
2024/01/05 08:52:37;;;;;;;4.75;1.65;;;9.90;99.90;;;;;;10370407;28;20201;-60
2024/01/05 08:57:40;;;;;;;2.90;1.27;;;9.90;99.90;;;;;;10368093;28;20684;-63
2024/01/05 09:02:45;;;;;;;4.05;1.27;;;10.00;99.90;;;;;;10378009;28;20262;-62
2024/01/05 09:07:49;;;;;;;3.90;1.40;;;10.00;99.90;;;;;;10348794;28;20835;-64
2024/01/05 09:12:53;;;;;;;2.45;1.00;;;10.00;99.90;;;;;;10376033;28;20633;-64
2024/01/05 09:17:58;;;;;;;3.88;0.70;;;10.00;99.90;;;;;;10375108;28;20762;-63
2024/01/05 09:23:01;;;;;;;1.73;0.90;;;10.00;99.90;;;;;;10364552;28;20213;-62
2024/01/05 09:28:06;;;;;;;3.10;0.82;;;10.00;99.90;;;;;;10374401;28;20629;-61
2024/01/05 09:33:12;;;;;;;3.83;1.10;;;9.90;99.90;;;;;;10364806;28;20255;-63
2024/01/05 09:38:16;;;;;;;4.88;1.15;;;9.90;99.90;;;;;;10365786;28;20225;-60
2024/01/05 09:43:23;;;;;;;1.65;0.73;;;9.90;99.90;;;;;;10333216;28;20210;-60
2024/01/05 09:48:29;;;;;;;1.58;0.45;;;9.90;99.90;;;;;;10353486;28;20221;-60
2024/01/05 09:53:43;;;;;;;1.07;0.40;;;9.90;99.90;;;;;;10373225;28;20204;-61
2024/01/05 09:58:46;;;;;;;1.43;0.40;;;9.80;97.10;;;;;;10372723;28;20291;-60
2024/01/05 10:03:55;;;;;;;2.87;0.30;;;9.80;97.90;;;;;;10372518;28;20216;-60
2024/01/05 10:09:00;;;;;;;1.87;0.43;;;9.80;97.30;;;;;;10372299;28;20255;-60
2024/01/05 10:14:05;;;;;;;2.40;0.40;;;9.80;96.00;;;;;;10372725;28;20232;-62
2024/01/05 10:19:17;;;;;;;1.20;0.40;;;9.80;97.10;;;;;;10371170;28;20443;-60
2024/01/05 10:24:24;;;;;;;1.27;0.40;;;9.80;95.60;;;;;;10371967;28;20213;-60
2024/01/05 10:29:28;;;;;;;0.80;0.50;;;9.80;95.70;;;;;;10371768;28;20225;-61
2024/01/05 10:34:37;;;;;;;1.75;0.40;;;9.90;97.20;;;;;;10371648;28;20196;-60
2024/01/05 10:39:46;;;;;;;1.17;0.35;;;9.90;97.80;;;;;;10371336;28;20256;-62
2024/01/05 10:44:52;;;;;;;2.22;0.40;;;9.90;95.80;;;;;;10371059;28;20213;-61
2024/01/05 10:49:57;;;;;;;0.67;0.30;;;9.80;95.90;;;;;;10371169;28;20552;-60
2024/01/05 10:55:03;;;;;;;1.67;0.55;;;9.80;96.90;;;;;;10371491;28;20707;-62
2024/01/05 11:00:09;;;;;;;0.80;0.40;;;9.90;96.70;;;;;;10371546;28;20189;-61
2024/01/05 11:05:18;;;;;;;0.98;0.45;;;9.90;96.50;;;;;;10370183;28;20259;-60
2024/01/05 11:10:29;;;;;;;0.60;0.40;;;9.90;97.00;;;;;;10370307;28;20201;-61
2024/01/05 11:15:46;;;;;;;0.52;0.28;;;9.80;95.50;;;;;;10370153;28;20271;-61
2024/01/05 11:21:08;;;;;;;1.10;0.43;;;9.80;95.90;;;;;;10369185;28;20216;-61
2024/01/05 11:26:32;;;;;;;2.05;0.82;;;9.80;94.90;;;;;;10369593;28;20259;-61
2024/01/05 11:31:52;;;;;;;1.07;0.60;;;9.80;96.00;;;;;;10369590;28;20617;-62
2024/01/05 11:36:58;;;;;;;3.13;0.73;;;9.80;95.70;;;;;;10369244;28;20224;-61
2024/01/05 11:42:01;;;;;;;1.77;0.70;;;9.90;95.60;;;;;;10369352;28;20691;-64
2024/01/05 11:47:05;;;;;;;2.63;0.60;;;9.90;96.30;;;;;;10369038;28;20220;-61
2024/01/05 11:52:10;;;;;;;1.23;0.60;;;9.80;95.70;;;;;;10368888;28;20220;-63
2024/01/05 11:57:14;;;;;;;3.57;0.80;;;9.80;95.70;;;;;;10333506;28;20704;-64
2024/01/05 12:02:18;;;;;;;1.60;0.70;;;9.80;94.60;;;;;;10328000;28;20245;-64
2024/01/05 12:07:25;;;;;;;1.90;0.80;;;9.70;95.00;;;;;;10342593;28;20255;-61
2024/01/05 12:12:29;;;;;;;1.63;0.60;;;9.80;94.80;;;;;;10368616;28;20796;-64
2024/01/05 12:17:33;;;;;;;1.80;0.70;;;9.80;94.40;;;;;;10368164;28;20212;-65
2024/01/05 12:22:38;;;;;;;1.17;0.60;;;9.80;94.30;;;;;;10359429;28;20244;-63
2024/01/05 12:27:41;;;;;;;1.90;0.85;;;9.80;95.10;;;;;;10362843;28;20696;-62
2024/01/05 12:32:49;;;;;;;1.20;0.67;;;9.70;94.20;;;;;;10367883;28;20600;-64
2024/01/05 12:37:54;;;;;;;2.07;0.40;;;9.70;95.40;;;;;;10376931;28;20228;-61
2024/01/05 12:42:58;;;;;;;2.50;0.80;;;9.60;95.20;;;;;;10361927;28;20239;-61
2024/01/05 12:48:11;;;;;;;2.63;1.00;;;9.60;95.40;;;;;;10376213;28;20217;-64
2024/01/05 12:53:20;;;;;;;3.00;0.80;;;9.60;95.00;;;;;;10375794;28;20585;-64
2024/01/05 12:58:23;;;;;;;2.23;0.80;;;9.60;95.70;;;;;;10372574;28;20275;-65
2024/01/05 13:03:27;;;;;;;2.83;1.00;;;9.60;95.80;;;;;;10374900;28;20208;-64
2024/01/05 13:08:34;;;;;;;1.13;0.50;;;9.60;95.80;;;;;;10336964;28;20762;-63
2024/01/05 13:13:38;;;;;;;1.97;0.70;;;9.50;94.60;;;;;;10383044;28;20201;-61
2024/01/05 13:18:42;;;;;;;2.03;0.77;;;9.40;94.50;;;;;;10375099;28;20764;-62
2024/01/05 13:23:52;;;;;;;2.07;0.60;;;9.30;95.30;;;;;;10370662;28;20286;-64
2024/01/05 13:28:56;;;;;;;2.87;0.77;;;9.30;96.20;;;;;;10373910;28;20225;-62
2024/01/05 13:33:59;;;;;;;2.57;1.03;;;9.20;95.40;;;;;;10373803;28;20600;-61
2024/01/05 13:39:05;;;;;;;1.73;0.57;;;9.20;95.70;;;;;;10373838;28;20225;-64
2024/01/05 13:44:19;;;;;;;1.80;0.70;;;9.20;95.90;;;;;;10372706;28;20220;-61
2024/01/05 13:49:22;;;;;;;2.37;0.90;;;9.20;95.70;;;;;;10373498;28;20444;-62
2024/01/05 13:54:31;;;;;;;2.63;1.20;;;9.20;96.60;;;;;;10373128;28;20193;-63
2024/01/05 13:59:35;;;;;;;4.03;1.00;;;9.10;96.50;;;;;;10373057;28;20588;-62
2024/01/05 14:04:39;;;;;;;2.67;1.10;;;9.20;96.90;;;;;;10373316;28;20274;-62
2024/01/05 14:09:44;;;;;;;3.23;1.17;;;9.10;96.30;;;;;;10372468;28;20303;-62
2024/01/05 14:14:47;;;;;;;3.00;0.80;;;9.10;96.80;;;;;;10372653;28;20205;-62
2024/01/05 14:19:52;;;;;;;2.77;1.07;;;9.20;97.60;;;;;;10371061;28;20236;-67
2024/01/05 14:24:57;;;;;;;6.90;1.30;;;9.20;97.30;;;;;;10363921;28;20221;-66
2024/01/05 14:30:00;;;;;;;3.23;1.20;;;9.20;97.70;;;;;;10363027;28;20247;-66
2024/01/05 14:35:06;;;;;;;4.07;1.17;;;9.10;97.70;;;;;;10360077;28;20186;-67
2024/01/05 14:40:13;;;;;;;2.40;1.03;;;9.10;98.40;;;;;;10361816;28;20242;-67
2024/01/05 14:45:17;;;;;;;2.93;1.13;;;9.00;98.40;;;;;;10358870;28;20258;-67
2024/01/05 14:50:20;;;;;;;4.50;1.20;;;9.00;99.10;;;;;;10360895;28;20197;-66
2024/01/05 14:55:25;;;;;;;3.30;1.17;;;9.00;98.90;;;;;;10359778;28;20214;-65
2024/01/05 15:00:29;;;;;;;3.50;1.10;;;8.90;99.00;;;;;;10359072;28;20201;-66
2024/01/05 15:05:32;;;;;;;1.47;0.87;;;8.80;98.80;;;;;;10360951;28;20287;-67
2024/01/05 15:10:37;;;;;;;4.97;1.57;;;8.80;98.80;;;;;;10357241;28;21504;-66
2024/01/05 15:15:42;;;;;;;3.93;1.40;;;8.90;99.20;;;;;;10365800;28;20580;-66
2024/01/05 15:20:46;;;;;;;2.87;0.97;;;8.90;99.10;;;;;;10350366;28;20237;-67
2024/01/05 15:25:51;;;;;;;3.67;1.10;;;8.90;99.30;;;;;;10359060;28;20283;-67
2024/01/05 15:30:55;;;;;;;5.13;1.50;;;8.90;99.30;;;;;;10362444;28;20692;-66
2024/01/05 15:35:58;;;;;;;4.43;1.60;;;8.80;98.40;;;;;;10360625;28;20775;-66
2024/01/05 15:41:03;;;;;;;3.07;1.27;;;8.70;99.00;;;;;;10356326;28;20200;-65
2024/01/05 15:46:09;;;;;;;4.13;1.70;;;8.70;99.10;;;;;;10361442;28;20279;-65
2024/01/05 15:51:15;;;;;;;4.63;1.87;;;8.70;99.40;;;;;;10363097;28;20213;-65
2024/01/05 15:56:20;;;;;;;5.03;1.80;;;8.70;99.60;;;;;;10359271;28;21710;-67
2024/01/05 16:01:24;;;;;;;4.60;1.73;;;8.70;99.30;;;;;;10360195;28;20204;-66
2024/01/05 16:06:27;;;;;;;5.90;1.57;;;8.60;99.60;;;;;;10357143;28;20258;-66
2024/01/05 16:11:32;;;;;;;5.47;2.00;;;8.60;99.60;;;;;;10356978;28;20234;-66
2024/01/05 16:16:39;;;;;;;4.83;2.10;;;8.60;99.90;;;;;;10355976;28;20875;-68
2024/01/05 16:21:43;;;;;;;4.93;1.47;;;8.80;99.90;;;;;;10357571;28;20197;-67
2024/01/05 16:26:49;;;;;;;3.73;1.50;;;8.80;99.40;;;;;;10356192;28;20279;-68
2024/01/05 16:31:52;;;;;;;4.00;1.67;;;8.80;99.70;;;;;;10359513;28;20204;-69
2024/01/05 16:36:56;;;;;;;4.13;1.60;;;8.70;99.60;;;;;;10359148;28;20263;-67
2024/01/05 16:42:01;;;;;;;3.20;1.27;;;8.70;99.70;;;;;;10359507;28;20263;-68
2024/01/05 16:47:05;;;;;;;4.30;1.63;;;8.70;99.90;;;;;;10357323;28;20691;-68
2024/01/05 16:52:09;;;;;;;4.67;1.80;;;8.60;99.50;;;;;;10360423;28;20353;-67
2024/01/05 16:57:14;;;;;;;4.77;2.07;;;8.60;99.30;;;;;;10331555;28;20306;-67
2024/01/05 17:02:18;;;;;;;6.27;2.00;;;8.60;99.80;;;;;;10358879;28;20197;-69
2024/01/05 17:07:22;;;;;;;4.13;1.90;;;8.50;99.70;;;;;;10360268;28;20676;-68
2024/01/05 17:12:28;;;;;;;6.20;3.20;;;8.50;99.90;;;;;;10357978;28;20255;-68
2024/01/05 17:17:33;;;;;;;4.57;2.00;;;8.50;99.90;;;;;;10362138;28;20275;-68
2024/01/05 17:22:37;;;;;;;3.27;1.70;;;8.50;99.90;;;;;;10364083;28;20247;-67
2024/01/05 17:27:42;;;;;;;3.67;2.00;;;8.50;99.90;;;;;;10366087;28;20841;-68
2024/01/05 17:32:47;;;;;;;6.87;2.50;;;8.50;99.90;;;;;;10365798;28;20201;-67
2024/01/05 17:37:51;;;;;;;2.70;1.90;;;8.40;99.90;;;;;;10364418;28;20825;-67
2024/01/05 17:42:56;;;;;;;3.13;2.10;;;8.40;99.90;;;;;;10370227;28;20672;-67
2024/01/05 17:48:00;;;;;;;4.93;2.37;;;8.40;99.80;;;;;;10367865;28;20486;-67
2024/01/05 17:53:04;;;;;;;2.90;2.03;;;8.40;99.90;;;;;;10370559;28;20209;-67
2024/01/05 17:58:09;;;;;;;4.17;2.40;;;8.40;99.90;;;;;;10369768;28;20228;-66
2024/01/05 18:03:12;;;;;;;3.73;2.00;;;8.40;99.90;;;;;;10368338;28;20220;-66
2024/01/05 18:08:16;;;;;;;5.10;2.60;;;8.40;99.90;;;;;;10369154;28;20233;-67
2024/01/05 18:13:21;;;;;;;4.50;2.80;;;8.40;99.90;;;;;;10363194;28;20204;-66
2024/01/05 18:18:25;;;;;;;3.27;2.40;;;8.40;99.90;;;;;;10363778;28;20322;-68
2024/01/05 18:23:28;;;;;;;3.20;2.50;;;8.30;99.90;;;;;;10364424;28;20232;-68
2024/01/05 18:28:33;;;;;;;5.47;3.17;;;8.30;99.90;;;;;;10362473;28;20208;-66
2024/01/05 18:33:37;;;;;;;4.33;3.07;;;8.30;99.90;;;;;;10364863;28;20204;-67
2024/01/05 18:38:44;;;;;;;3.73;3.03;;;8.40;99.90;;;;;;10362708;28;20259;-66
2024/01/05 18:43:50;;;;;;;6.53;3.40;;;8.40;99.90;;;;;;10362564;28;20249;-68
2024/01/05 18:48:53;;;;;;;4.37;3.60;;;8.40;99.90;;;;;;10363010;28;20225;-66
2024/01/05 18:53:59;;;;;;;3.33;3.03;;;8.30;99.90;;;;;;10363576;28;20201;-67
2024/01/05 18:59:04;;;;;;;6.50;4.10;;;8.30;99.90;;;;;;10361203;28;20221;-67
2024/01/05 19:04:08;;;;;;;3.93;3.47;;;8.40;99.90;;;;;;10361300;28;20766;-69
2024/01/05 19:09:12;;;;;;;4.63;3.40;;;8.40;99.90;;;;;;10360690;28;20283;-68
2024/01/05 19:14:20;;;;;;;5.20;3.50;;;8.40;99.90;;;;;;10360605;28;20205;-68
2024/01/05 19:19:23;;;;;;;5.63;3.93;;;8.40;99.90;;;;;;10355747;28;20752;-68
2024/01/05 19:24:27;;;;;;;4.50;3.83;;;8.30;99.90;;;;;;10364684;28;20239;-68
2024/01/05 19:29:33;;;;;;;3.90;3.57;;;8.40;99.90;;;;;;10365858;28;20735;-67
2024/01/05 19:34:37;;;;;;;4.67;3.83;;;8.40;99.90;;;;;;10361675;28;20292;-68
2024/01/05 19:39:41;;;;;;;4.47;3.60;;;8.40;99.90;;;;;;10356677;28;20936;-67
2024/01/05 19:44:46;;;;;;;6.23;3.97;;;8.40;99.90;;;;;;10361600;28;20213;-67
2024/01/05 19:49:49;;;;;;;4.90;4.27;;;8.40;99.90;;;;;;10363257;28;20282;-67
2024/01/05 19:54:54;;;;;;;5.10;4.60;;;8.30;99.90;;;;;;10357082;28;20202;-67
2024/01/05 19:59:59;;;;;;;5.37;4.87;;;8.40;99.90;;;;;;10357223;28;20228;-67
2024/01/05 20:05:02;;;;;;;4.70;4.20;;;8.30;99.90;;;;;;10359690;28;20249;-66
2024/01/05 20:10:07;;;;;;;5.17;4.67;;;8.30;99.90;;;;;;10359691;28;20270;-66
2024/01/05 20:15:12;;;;;;;6.83;4.97;;;8.30;99.90;;;;;;10361476;28;20232;-68
2024/01/05 20:20:16;;;;;;;6.60;5.00;;;8.30;99.90;;;;;;10359526;28;20205;-67
2024/01/05 20:25:20;;;;;;;5.30;4.83;;;8.30;99.90;;;;;;10359424;28;20252;-67
2024/01/05 20:30:26;;;;;;;5.27;4.80;;;8.30;99.90;;;;;;10363705;28;20208;-67
2024/01/05 20:35:30;;;;;;;5.80;5.30;;;8.30;99.90;;;;;;10363474;28;20280;-66
2024/01/05 20:40:33;;;;;;;5.80;5.30;;;8.30;99.90;;;;;;10361127;28;20258;-66
2024/01/05 20:45:40;;;;;;;6.37;5.77;;;8.30;99.90;;;;;;10360879;28;20810;-68
2024/01/05 20:50:44;;;;;;;6.83;6.13;;;8.30;99.90;;;;;;10362587;28;20243;-66
2024/01/05 20:55:49;;;;;;;7.13;6.03;;;8.30;99.90;;;;;;10371956;28;20275;-66
2024/01/05 21:00:54;;;;;;;8.00;7.20;;;8.30;99.90;;;;;;10369099;28;21555;-66
2024/01/05 21:05:58;;;;;;;7.30;6.03;;;8.30;99.90;;;;;;10365703;28;20232;-66
2024/01/05 21:11:01;;;;;;;7.50;6.73;;;8.40;99.90;;;;;;10362330;28;20209;-66
2024/01/05 21:16:07;;;;;;;6.80;6.20;;;8.40;99.90;;;;;;10367822;28;20217;-67
2024/01/05 21:21:11;;;;;;;7.83;7.03;;;8.40;99.90;;;;;;10360184;28;20205;-66
2024/01/05 21:26:14;;;;;;;9.13;8.23;;;8.40;99.90;;;;;;10360852;28;20290;-67
2024/01/05 21:31:20;;;;;;;7.70;6.97;;;8.40;99.90;;;;;;10365665;28;20208;-67
2024/01/05 21:36:23;;;;;;;9.20;7.73;;;8.40;99.90;;;;;;10369380;28;20221;-67
2024/01/05 21:41:29;;;;;;;8.53;7.80;;;8.40;99.90;;;;;;10365085;28;20197;-66
2024/01/05 21:46:34;;;;;;;9.53;8.63;;;8.40;99.90;;;;;;10358262;28;20284;-67
2024/01/05 21:51:37;;;;;;;10.13;9.10;;;8.40;99.90;;;;;;10363142;28;20209;-66
2024/01/05 21:56:41;;;;;;;9.10;8.20;;;8.40;99.90;;;;;;10365438;28;20214;-67
2024/01/05 22:01:47;;;;;;;9.23;8.33;;;8.40;99.90;;;;;;10363557;28;20664;-67
2024/01/05 22:06:51;;;;;;;8.93;7.97;;;8.40;99.90;;;;;;10366573;28;20232;-68
2024/01/05 22:11:55;;;;;;;10.50;8.97;;;8.40;99.90;;;;;;10364750;28;20217;-66
2024/01/05 22:17:00;;;;;;;9.10;8.03;;;8.40;99.90;;;;;;10367578;28;20255;-66
2024/01/05 22:22:04;;;;;;;9.40;8.50;;;8.30;99.90;;;;;;10358502;28;20764;-67
2024/01/05 22:27:07;;;;;;;9.23;8.33;;;8.30;99.90;;;;;;10366766;28;20282;-67
2024/01/05 22:32:13;;;;;;;8.63;7.70;;;8.40;99.90;;;;;;10364695;28;20692;-67
2024/01/05 22:37:17;;;;;;;9.17;8.30;;;8.40;99.90;;;;;;10361905;28;20758;-66
2024/01/05 22:42:21;;;;;;;9.27;8.47;;;8.40;99.90;;;;;;10363350;28;20201;-67
2024/01/05 22:47:26;;;;;;;10.30;9.27;;;8.40;99.90;;;;;;10360716;28;20256;-66
2024/01/05 22:52:29;;;;;;;9.63;8.67;;;8.40;99.90;;;;;;10365167;28;20718;-66
2024/01/05 22:57:33;;;;;;;10.10;9.20;;;8.50;99.90;;;;;;10363390;28;20692;-66
2024/01/05 23:02:38;;;;;;;10.33;9.33;;;8.50;99.90;;;;;;10360780;28;20294;-66
2024/01/05 23:07:42;;;;;;;10.93;9.83;;;8.50;99.90;;;;;;10357160;28;20259;-67
2024/01/05 23:12:46;;;;;;;10.27;9.13;;;8.50;99.90;;;;;;10364833;28;20201;-66
2024/01/05 23:17:51;;;;;;;9.73;8.83;;;8.50;99.90;;;;;;10365503;28;20283;-66
2024/01/05 23:22:55;;;;;;;9.63;8.67;;;8.60;99.90;;;;;;10367459;28;20259;-67
2024/01/05 23:27:59;;;;;;;10.07;8.87;;;8.50;99.90;;;;;;10365432;28;20228;-67
2024/01/05 23:33:04;;;;;;;9.50;8.50;;;8.50;99.90;;;;;;10362141;28;20209;-67
2024/01/05 23:38:08;;;;;;;10.07;9.07;;;8.60;99.90;;;;;;10364080;28;20274;-67
2024/01/05 23:43:12;;;;;;;10.53;9.43;;;8.50;99.90;;;;;;10360520;28;20201;-66
2024/01/05 23:48:17;;;;;;;11.20;9.63;;;8.50;99.90;;;;;;10364046;28;20626;-67
2024/01/05 23:53:20;;;;;;;11.33;9.80;;;8.60;99.90;;;;;;10359821;28;20609;-67
2024/01/05 23:58:24;;;;;;;11.37;9.47;;;8.60;99.90;;;;;;10365389;28;20745;-66
